sensor_id;sensor_type;location;lat;lon;timestamp;pressure;altitude;pressure_sealevel;temperature;humidity
54816;BME280;40715;55.752;37.884;2023-12-22T00:02:03;96734.81;;;30.52;27.93
54816;BME280;40715;55.752;37.884;2023-12-22T00:04:30;96724.06;;;30.57;27.50
54816;BME280;40715;55.752;37.884;2023-12-22T00:06:57;96716.06;;;30.62;27.78
54816;BME280;40715;55.752;37.884;2023-12-22T00:09:24;96720.78;;;30.67;27.55
54816;BME280;40715;55.752;37.884;2023-12-22T00:11:51;96725.06;;;30.74;27.60
54816;BME280;40715;55.752;37.884;2023-12-22T00:14:18;96722.09;;;30.76;27.19
54816;BME280;40715;55.752;37.884;2023-12-22T00:16:45;96726.00;;;30.80;27.03
54816;BME280;40715;55.752;37.884;2023-12-22T00:19:12;96721.16;;;30.82;26.98
54816;BME280;40715;55.752;37.884;2023-12-22T00:21:39;96722.09;;;30.88;26.97
54816;BME280;40715;55.752;37.884;2023-12-22T00:24:06;96715.00;;;30.87;27.08
54816;BME280;40715;55.752;37.884;2023-12-22T00:26:33;96718.56;;;30.87;27.08
54816;BME280;40715;55.752;37.884;2023-12-22T00:29:00;96713.72;;;30.89;26.94
54816;BME280;40715;55.752;37.884;2023-12-22T00:31:27;96709.34;;;30.88;27.25
54816;BME280;40715;55.752;37.884;2023-12-22T00:33:54;96705.81;;;30.88;26.88
54816;BME280;40715;55.752;37.884;2023-12-22T00:36:22;96705.31;;;30.91;27.21
54816;BME280;40715;55.752;37.884;2023-12-22T00:38:51;96705.09;;;30.92;27.19
54816;BME280;40715;55.752;37.884;2023-12-22T00:41:18;96711.81;;;30.90;27.19
54816;BME280;40715;55.752;37.884;2023-12-22T00:43:44;96704.13;;;30.87;26.94
54816;BME280;40715;55.752;37.884;2023-12-22T00:46:13;96705.66;;;30.83;26.79
54816;BME280;40715;55.752;37.884;2023-12-22T00:48:40;96699.06;;;30.78;26.81
54816;BME280;40715;55.752;37.884;2023-12-22T00:51:07;96702.47;;;30.74;27.29
54816;BME280;40715;55.752;37.884;2023-12-22T00:53:34;96700.72;;;30.68;27.07
54816;BME280;40715;55.752;37.884;2023-12-22T00:56:01;96704.72;;;30.65;27.26
54816;BME280;40715;55.752;37.884;2023-12-22T00:58:32;96702.34;;;30.57;27.34
54816;BME280;40715;55.752;37.884;2023-12-22T01:00:59;96706.94;;;30.56;27.35
54816;BME280;40715;55.752;37.884;2023-12-22T01:03:26;96697.59;;;30.52;27.09
54816;BME280;40715;55.752;37.884;2023-12-22T01:05:53;96703.75;;;30.48;27.43
54816;BME280;40715;55.752;37.884;2023-12-22T01:08:20;96709.41;;;30.46;27.11
54816;BME280;40715;55.752;37.884;2023-12-22T01:10:47;96699.84;;;30.43;27.33
54816;BME280;40715;55.752;37.884;2023-12-22T01:13:14;96709.03;;;30.42;27.49
54816;BME280;40715;55.752;37.884;2023-12-22T01:15:41;96699.66;;;30.38;27.32
54816;BME280;40715;55.752;37.884;2023-12-22T01:18:11;96704.75;;;30.35;27.15
54816;BME280;40715;55.752;37.884;2023-12-22T01:20:38;96711.22;;;30.34;27.16
54816;BME280;40715;55.752;37.884;2023-12-22T01:23:05;96710.41;;;30.33;27.23
54816;BME280;40715;55.752;37.884;2023-12-22T01:25:32;96711.00;;;30.35;27.25
54816;BME280;40715;55.752;37.884;2023-12-22T01:27:59;96702.63;;;30.37;27.34
54816;BME280;40715;55.752;37.884;2023-12-22T01:30:28;96709.03;;;30.42;27.45
54816;BME280;40715;55.752;37.884;2023-12-22T01:32:55;96704.22;;;30.44;26.93
54816;BME280;40715;55.752;37.884;2023-12-22T01:35:22;96708.34;;;30.47;27.25
54816;BME280;40715;55.752;37.884;2023-12-22T01:37:50;96696.19;;;30.50;27.15
54816;BME280;40715;55.752;37.884;2023-12-22T01:40:18;96705.53;;;30.54;26.72
54816;BME280;40715;55.752;37.884;2023-12-22T01:42:45;96705.03;;;30.57;27.00
54816;BME280;40715;55.752;37.884;2023-12-22T01:45:13;96694.78;;;30.59;26.73
54816;BME280;40715;55.752;37.884;2023-12-22T01:47:40;96698.56;;;30.58;26.71
54816;BME280;40715;55.752;37.884;2023-12-22T01:50:09;96703.19;;;30.57;27.07
54816;BME280;40715;55.752;37.884;2023-12-22T01:52:39;96694.19;;;30.57;26.65
54816;BME280;40715;55.752;37.884;2023-12-22T01:55:10;96690.41;;;30.58;27.04
54816;BME280;40715;55.752;37.884;2023-12-22T01:57:38;96688.31;;;30.60;26.85
54816;BME280;40715;55.752;37.884;2023-12-22T02:00:08;96674.59;;;30.55;26.73
54816;BME280;40715;55.752;37.884;2023-12-22T02:02:36;96683.22;;;30.52;26.74
54816;BME280;40715;55.752;37.884;2023-12-22T02:05:05;96678.44;;;30.47;27.05
54816;BME280;40715;55.752;37.884;2023-12-22T02:07:36;96673.03;;;30.47;27.11
54816;BME280;40715;55.752;37.884;2023-12-22T02:10:03;96674.34;;;30.44;27.09
54816;BME280;40715;55.752;37.884;2023-12-22T02:12:30;96677.28;;;30.43;27.19
54816;BME280;40715;55.752;37.884;2023-12-22T02:14:57;96675.47;;;30.37;27.08
54816;BME280;40715;55.752;37.884;2023-12-22T02:17:29;96677.59;;;30.35;27.19
54816;BME280;40715;55.752;37.884;2023-12-22T02:20:00;96672.88;;;30.30;27.23
54816;BME280;40715;55.752;37.884;2023-12-22T02:22:29;96673.06;;;30.28;27.30
54816;BME280;40715;55.752;37.884;2023-12-22T02:24:56;96666.25;;;30.26;27.32
54816;BME280;40715;55.752;37.884;2023-12-22T02:27:45;96673.31;;;30.27;27.16
54816;BME280;40715;55.752;37.884;2023-12-22T02:30:32;96674.97;;;30.28;27.01
54816;BME280;40715;55.752;37.884;2023-12-22T02:33:02;96671.41;;;30.70;26.25
54816;BME280;40715;55.752;37.884;2023-12-22T02:35:32;96668.91;;;30.14;27.16
54816;BME280;40715;55.752;37.884;2023-12-22T02:38:01;96664.97;;;29.98;27.44
54816;BME280;40715;55.752;37.884;2023-12-22T02:40:31;96665.19;;;29.97;27.41
54816;BME280;40715;55.752;37.884;2023-12-22T02:42:59;96659.19;;;29.94;27.43
54816;BME280;40715;55.752;37.884;2023-12-22T02:45:27;96664.50;;;30.01;26.91
54816;BME280;40715;55.752;37.884;2023-12-22T02:47:54;96666.53;;;30.06;27.09
54816;BME280;40715;55.752;37.884;2023-12-22T02:50:21;96656.66;;;30.11;27.08
54816;BME280;40715;55.752;37.884;2023-12-22T02:52:48;96654.03;;;30.17;26.96
54816;BME280;40715;55.752;37.884;2023-12-22T02:55:15;96652.28;;;30.22;26.62
54816;BME280;40715;55.752;37.884;2023-12-22T02:57:42;96653.84;;;30.30;26.50
54816;BME280;40715;55.752;37.884;2023-12-22T03:00:10;96654.81;;;30.36;26.65
54816;BME280;40715;55.752;37.884;2023-12-22T03:02:37;96655.31;;;30.44;27.02
54816;BME280;40715;55.752;37.884;2023-12-22T03:05:04;96655.91;;;30.46;27.43
54816;BME280;40715;55.752;37.884;2023-12-22T03:07:31;96656.28;;;30.50;27.80
54816;BME280;40715;55.752;37.884;2023-12-22T03:09:58;96661.25;;;30.53;28.19
54816;BME280;40715;55.752;37.884;2023-12-22T03:12:25;96661.56;;;30.57;28.71
54816;BME280;40715;55.752;37.884;2023-12-22T03:14:52;96649.44;;;30.59;28.46
54816;BME280;40715;55.752;37.884;2023-12-22T03:17:19;96648.94;;;30.62;28.87
54816;BME280;40715;55.752;37.884;2023-12-22T03:19:46;96643.03;;;30.66;28.97
54816;BME280;40715;55.752;37.884;2023-12-22T03:22:13;96641.28;;;30.59;29.57
54816;BME280;40715;55.752;37.884;2023-12-22T03:24:40;96654.28;;;30.57;29.71
54816;BME280;40715;55.752;37.884;2023-12-22T03:27:07;96657.22;;;30.56;29.60
54816;BME280;40715;55.752;37.884;2023-12-22T03:29:34;96647.53;;;30.48;29.96
54816;BME280;40715;55.752;37.884;2023-12-22T03:32:01;96652.38;;;30.46;30.17
54816;BME280;40715;55.752;37.884;2023-12-22T03:34:28;96647.41;;;30.43;30.13
54816;BME280;40715;55.752;37.884;2023-12-22T03:36:55;96643.47;;;30.39;30.61
54816;BME280;40715;55.752;37.884;2023-12-22T03:39:22;96636.63;;;30.36;30.60
54816;BME280;40715;55.752;37.884;2023-12-22T03:41:49;96643.34;;;30.34;30.79
54816;BME280;40715;55.752;37.884;2023-12-22T03:44:16;96641.44;;;30.34;30.86
54816;BME280;40715;55.752;37.884;2023-12-22T03:46:43;96643.56;;;30.32;30.87
54816;BME280;40715;55.752;37.884;2023-12-22T03:49:10;96645.34;;;30.26;30.76
54816;BME280;40715;55.752;37.884;2023-12-22T03:51:37;96651.22;;;30.23;31.03
54816;BME280;40715;55.752;37.884;2023-12-22T03:54:04;96658.53;;;30.23;31.15
54816;BME280;40715;55.752;37.884;2023-12-22T03:56:31;96649.22;;;30.19;30.91
54816;BME280;40715;55.752;37.884;2023-12-22T03:58:58;96646.75;;;30.17;31.12
54816;BME280;40715;55.752;37.884;2023-12-22T04:01:25;96646.94;;;30.16;31.16
54816;BME280;40715;55.752;37.884;2023-12-22T04:03:52;96639.03;;;30.14;31.57
54816;BME280;40715;55.752;37.884;2023-12-22T04:06:19;96638.81;;;30.16;31.01
54816;BME280;40715;55.752;37.884;2023-12-22T04:08:46;96638.72;;;30.22;30.94
54816;BME280;40715;55.752;37.884;2023-12-22T04:11:13;96642.38;;;30.28;30.94
54816;BME280;40715;55.752;37.884;2023-12-22T04:13:40;96634.84;;;30.30;31.04
54816;BME280;40715;55.752;37.884;2023-12-22T04:16:07;96633.28;;;30.34;30.83
54816;BME280;40715;55.752;37.884;2023-12-22T04:18:34;96626.56;;;30.37;30.48
54816;BME280;40715;55.752;37.884;2023-12-22T04:21:01;96624.84;;;30.42;30.90
54816;BME280;40715;55.752;37.884;2023-12-22T04:23:29;96624.75;;;30.49;30.52
54816;BME280;40715;55.752;37.884;2023-12-22T04:25:56;96614.81;;;30.55;30.69
54816;BME280;40715;55.752;37.884;2023-12-22T04:28:23;96616.00;;;30.59;30.66
54816;BME280;40715;55.752;37.884;2023-12-22T04:30:50;96616.34;;;30.62;30.30
54816;BME280;40715;55.752;37.884;2023-12-22T04:33:17;96605.72;;;30.61;30.34
54816;BME280;40715;55.752;37.884;2023-12-22T04:35:44;96608.44;;;30.61;30.33
54816;BME280;40715;55.752;37.884;2023-12-22T04:38:11;96603.38;;;30.64;30.41
54816;BME280;40715;55.752;37.884;2023-12-22T04:40:38;96602.53;;;30.64;30.66
54816;BME280;40715;55.752;37.884;2023-12-22T04:43:05;96603.94;;;30.67;30.63
54816;BME280;40715;55.752;37.884;2023-12-22T04:45:32;96594.13;;;30.66;30.48
54816;BME280;40715;55.752;37.884;2023-12-22T04:47:58;96594.38;;;30.64;30.58
54816;BME280;40715;55.752;37.884;2023-12-22T04:50:25;96585.88;;;30.60;30.71
54816;BME280;40715;55.752;37.884;2023-12-22T04:52:52;96585.28;;;30.58;30.44
54816;BME280;40715;55.752;37.884;2023-12-22T04:55:19;96576.19;;;30.53;30.82
54816;BME280;40715;55.752;37.884;2023-12-22T04:57:47;96574.19;;;30.48;30.37
54816;BME280;40715;55.752;37.884;2023-12-22T05:00:14;96586.56;;;30.44;31.00
54816;BME280;40715;55.752;37.884;2023-12-22T05:02:41;96581.00;;;30.39;30.95
54816;BME280;40715;55.752;37.884;2023-12-22T05:05:09;96582.78;;;30.33;30.74
54816;BME280;40715;55.752;37.884;2023-12-22T05:07:36;96574.25;;;30.29;31.12
54816;BME280;40715;55.752;37.884;2023-12-22T05:10:03;96580.16;;;30.26;30.96
54816;BME280;40715;55.752;37.884;2023-12-22T05:12:31;96575.22;;;30.23;31.04
54816;BME280;40715;55.752;37.884;2023-12-22T05:14:58;96585.34;;;30.16;31.10
54816;BME280;40715;55.752;37.884;2023-12-22T05:17:24;96578.72;;;30.12;31.31
54816;BME280;40715;55.752;37.884;2023-12-22T05:19:51;96584.75;;;30.14;31.31
54816;BME280;40715;55.752;37.884;2023-12-22T05:22:18;96587.22;;;30.16;31.33
54816;BME280;40715;55.752;37.884;2023-12-22T05:24:45;96590.53;;;30.18;31.12
54816;BME280;40715;55.752;37.884;2023-12-22T05:27:12;96591.38;;;30.18;31.57
54816;BME280;40715;55.752;37.884;2023-12-22T05:29:39;96597.16;;;30.22;31.61
54816;BME280;40715;55.752;37.884;2023-12-22T05:32:06;96599.88;;;30.22;31.48
54816;BME280;40715;55.752;37.884;2023-12-22T05:34:33;96598.69;;;30.29;31.25
54816;BME280;40715;55.752;37.884;2023-12-22T05:37:00;96604.97;;;30.30;31.35
54816;BME280;40715;55.752;37.884;2023-12-22T05:39:27;96596.34;;;30.33;31.43
54816;BME280;40715;55.752;37.884;2023-12-22T05:41:54;96595.06;;;30.36;31.44
54816;BME280;40715;55.752;37.884;2023-12-22T05:44:21;96584.78;;;30.38;31.32
54816;BME280;40715;55.752;37.884;2023-12-22T05:46:49;96589.75;;;30.41;31.14
54816;BME280;40715;55.752;37.884;2023-12-22T05:49:16;96595.81;;;30.43;30.97
54816;BME280;40715;55.752;37.884;2023-12-22T05:51:43;96584.31;;;30.41;31.15
54816;BME280;40715;55.752;37.884;2023-12-22T05:54:10;96581.81;;;30.39;30.95
54816;BME280;40715;55.752;37.884;2023-12-22T05:56:38;96586.91;;;30.36;30.93
54816;BME280;40715;55.752;37.884;2023-12-22T05:59:04;96589.50;;;30.30;30.80
54816;BME280;40715;55.752;37.884;2023-12-22T06:01:32;96588.44;;;30.32;31.25
54816;BME280;40715;55.752;37.884;2023-12-22T06:03:59;96602.47;;;30.28;30.93
54816;BME280;40715;55.752;37.884;2023-12-22T06:06:27;96610.84;;;30.27;31.19
54816;BME280;40715;55.752;37.884;2023-12-22T06:08:54;96602.38;;;30.23;31.00
54816;BME280;40715;55.752;37.884;2023-12-22T06:11:21;96598.22;;;30.21;31.23
54816;BME280;40715;55.752;37.884;2023-12-22T06:13:49;96594.94;;;30.19;30.93
54816;BME280;40715;55.752;37.884;2023-12-22T06:16:16;96586.66;;;30.13;30.85
54816;BME280;40715;55.752;37.884;2023-12-22T06:18:45;96581.78;;;30.16;30.92
54816;BME280;40715;55.752;37.884;2023-12-22T06:21:12;96593.13;;;30.12;31.07
54816;BME280;40715;55.752;37.884;2023-12-22T06:23:39;96602.56;;;30.10;30.98
54816;BME280;40715;55.752;37.884;2023-12-22T06:26:12;96594.88;;;30.07;31.10
54816;BME280;40715;55.752;37.884;2023-12-22T06:28:39;96593.00;;;30.07;31.33
54816;BME280;40715;55.752;37.884;2023-12-22T06:31:07;96605.75;;;30.07;31.30
54816;BME280;40715;55.752;37.884;2023-12-22T06:33:35;96603.41;;;30.10;31.39
54816;BME280;40715;55.752;37.884;2023-12-22T06:36:02;96601.50;;;30.11;31.38
54816;BME280;40715;55.752;37.884;2023-12-22T06:38:30;96610.69;;;30.10;31.34
54816;BME280;40715;55.752;37.884;2023-12-22T06:40:57;96611.06;;;30.13;31.31
54816;BME280;40715;55.752;37.884;2023-12-22T06:43:24;96608.38;;;30.13;31.58
54816;BME280;40715;55.752;37.884;2023-12-22T06:45:51;96606.03;;;30.17;31.30
54816;BME280;40715;55.752;37.884;2023-12-22T06:48:21;96609.06;;;30.21;31.38
54816;BME280;40715;55.752;37.884;2023-12-22T06:50:48;96601.50;;;30.23;31.40
54816;BME280;40715;55.752;37.884;2023-12-22T06:53:16;96601.31;;;30.24;31.26
54816;BME280;40715;55.752;37.884;2023-12-22T06:55:47;96601.66;;;30.28;31.20
54816;BME280;40715;55.752;37.884;2023-12-22T06:58:14;96594.94;;;30.30;30.91
54816;BME280;40715;55.752;37.884;2023-12-22T07:00:41;96603.91;;;30.31;30.99
54816;BME280;40715;55.752;37.884;2023-12-22T07:03:08;96599.75;;;30.28;30.99
54816;BME280;40715;55.752;37.884;2023-12-22T07:05:37;96617.81;;;30.23;31.17
54816;BME280;40715;55.752;37.884;2023-12-22T07:08:04;96632.94;;;30.19;30.95
54816;BME280;40715;55.752;37.884;2023-12-22T07:10:31;96618.41;;;30.13;30.92
54816;BME280;40715;55.752;37.884;2023-12-22T07:12:58;96625.47;;;30.14;31.01
54816;BME280;40715;55.752;37.884;2023-12-22T07:15:25;96614.50;;;30.09;30.86
54816;BME280;40715;55.752;37.884;2023-12-22T07:17:52;96608.09;;;30.03;31.01
54816;BME280;40715;55.752;37.884;2023-12-22T07:20:20;96610.22;;;30.01;31.22
54816;BME280;40715;55.752;37.884;2023-12-22T07:22:47;96611.53;;;29.99;31.06
54816;BME280;40715;55.752;37.884;2023-12-22T07:25:13;96608.81;;;29.99;31.00
54816;BME280;40715;55.752;37.884;2023-12-22T07:27:40;96612.34;;;29.99;30.97
54816;BME280;40715;55.752;37.884;2023-12-22T07:30:08;96609.50;;;29.94;30.81
54816;BME280;40715;55.752;37.884;2023-12-22T07:32:38;96605.50;;;29.97;30.71
54816;BME280;40715;55.752;37.884;2023-12-22T07:35:05;96609.03;;;29.97;31.01
54816;BME280;40715;55.752;37.884;2023-12-22T07:37:35;96597.09;;;29.98;30.94
54816;BME280;40715;55.752;37.884;2023-12-22T07:40:04;96595.13;;;30.05;30.85
54816;BME280;40715;55.752;37.884;2023-12-22T07:42:31;96591.94;;;30.08;30.93
54816;BME280;40715;55.752;37.884;2023-12-22T07:44:58;96595.84;;;30.12;31.29
54816;BME280;40715;55.752;37.884;2023-12-22T07:47:25;96597.88;;;30.17;31.23
54816;BME280;40715;55.752;37.884;2023-12-22T07:49:53;96596.94;;;30.23;30.84
54816;BME280;40715;55.752;37.884;2023-12-22T07:52:20;96598.94;;;30.28;30.85
54816;BME280;40715;55.752;37.884;2023-12-22T07:54:47;96590.69;;;30.35;30.99
54816;BME280;40715;55.752;37.884;2023-12-22T07:57:14;96585.59;;;30.38;30.37
54816;BME280;40715;55.752;37.884;2023-12-22T07:59:41;96581.81;;;30.39;30.56
54816;BME280;40715;55.752;37.884;2023-12-22T08:02:08;96584.31;;;30.41;30.35
54816;BME280;40715;55.752;37.884;2023-12-22T08:04:35;96582.66;;;30.40;30.34
54816;BME280;40715;55.752;37.884;2023-12-22T08:07:02;96584.31;;;30.41;30.61
54816;BME280;40715;55.752;37.884;2023-12-22T08:09:30;96574.72;;;30.38;30.12
54816;BME280;40715;55.752;37.884;2023-12-22T08:11:56;96585.72;;;30.32;30.10
54816;BME280;40715;55.752;37.884;2023-12-22T08:14:23;96570.34;;;30.25;30.56
54816;BME280;40715;55.752;37.884;2023-12-22T08:16:50;96574.38;;;30.23;30.40
54816;BME280;40715;55.752;37.884;2023-12-22T08:19:18;96562.34;;;30.19;30.25
54816;BME280;40715;55.752;37.884;2023-12-22T08:21:45;96552.78;;;30.16;30.53
54816;BME280;40715;55.752;37.884;2023-12-22T08:24:13;96552.78;;;30.16;30.50
54816;BME280;40715;55.752;37.884;2023-12-22T08:26:44;96554.44;;;30.17;30.10
54816;BME280;40715;55.752;37.884;2023-12-22T08:29:10;96565.50;;;30.16;30.06
54816;BME280;40715;55.752;37.884;2023-12-22T08:31:37;96557.59;;;30.14;30.31
54816;BME280;40715;55.752;37.884;2023-12-22T08:34:04;96551.94;;;30.16;30.39
54816;BME280;40715;55.752;37.884;2023-12-22T08:36:32;96552.53;;;30.18;30.21
54816;BME280;40715;55.752;37.884;2023-12-22T08:38:59;96559.88;;;30.17;29.91
54816;BME280;40715;55.752;37.884;2023-12-22T08:41:26;96561.16;;;30.15;30.28
54816;BME280;40715;55.752;37.884;2023-12-22T08:43:53;96557.34;;;30.16;29.99
54816;BME280;40715;55.752;37.884;2023-12-22T08:46:20;96563.41;;;30.18;29.90
54816;BME280;40715;55.752;37.884;2023-12-22T08:48:47;96568.34;;;30.21;30.13
54816;BME280;40715;55.752;37.884;2023-12-22T08:51:14;96567.06;;;30.23;30.29
54816;BME280;40715;55.752;37.884;2023-12-22T08:53:41;96550.06;;;30.28;30.06
54816;BME280;40715;55.752;37.884;2023-12-22T08:56:08;96557.16;;;30.29;30.18
54816;BME280;40715;55.752;37.884;2023-12-22T08:58:35;96565.78;;;30.38;30.00
54816;BME280;40715;55.752;37.884;2023-12-22T09:01:02;96550.44;;;30.43;30.23
54816;BME280;40715;55.752;37.884;2023-12-22T09:03:33;96546.22;;;30.48;29.81
54816;BME280;40715;55.752;37.884;2023-12-22T09:06:00;96549.00;;;30.53;29.99
54816;BME280;40715;55.752;37.884;2023-12-22T09:08:27;96544.75;;;30.57;29.48
54816;BME280;40715;55.752;37.884;2023-12-22T09:10:54;96546.66;;;30.56;29.70
54816;BME280;40715;55.752;37.884;2023-12-22T09:13:21;96550.19;;;30.57;29.61
54816;BME280;40715;55.752;37.884;2023-12-22T09:15:48;96553.75;;;30.57;29.61
54816;BME280;40715;55.752;37.884;2023-12-22T09:18:15;96554.00;;;30.56;29.42
54816;BME280;40715;55.752;37.884;2023-12-22T09:20:42;96547.16;;;30.53;29.18
54816;BME280;40715;55.752;37.884;2023-12-22T09:23:09;96559.88;;;30.53;29.06
54816;BME280;40715;55.752;37.884;2023-12-22T09:25:37;96565.31;;;30.53;29.17
54816;BME280;40715;55.752;37.884;2023-12-22T09:28:04;96550.09;;;30.52;28.84
54816;BME280;40715;55.752;37.884;2023-12-22T09:30:31;96548.91;;;30.48;29.10
54816;BME280;40715;55.752;37.884;2023-12-22T09:32:58;96541.69;;;30.41;28.59
54816;BME280;40715;55.752;37.884;2023-12-22T09:35:25;96545.84;;;30.44;28.50
54816;BME280;40715;55.752;37.884;2023-12-22T09:37:53;96541.56;;;30.36;28.67
54816;BME280;40715;55.752;37.884;2023-12-22T09:40:21;96546.38;;;30.34;28.54
54816;BME280;40715;55.752;37.884;2023-12-22T09:42:49;96536.00;;;30.31;28.72
54816;BME280;40715;55.752;37.884;2023-12-22T09:45:19;96526.44;;;30.28;28.46
54816;BME280;40715;55.752;37.884;2023-12-22T09:47:51;96530.00;;;30.29;28.65
54816;BME280;40715;55.752;37.884;2023-12-22T09:50:21;96529.88;;;30.24;28.32
54816;BME280;40715;55.752;37.884;2023-12-22T09:52:48;96526.44;;;30.17;28.71
54816;BME280;40715;55.752;37.884;2023-12-22T09:55:15;96522.06;;;30.04;28.30
54816;BME280;40715;55.752;37.884;2023-12-22T09:57:45;96519.94;;;29.94;28.82
54816;BME280;40715;55.752;37.884;2023-12-22T10:00:14;96529.50;;;29.97;29.10
54816;BME280;40715;55.752;37.884;2023-12-22T10:02:41;96526.06;;;30.01;28.88
54816;BME280;40715;55.752;37.884;2023-12-22T10:05:09;96521.00;;;30.05;29.15
54816;BME280;40715;55.752;37.884;2023-12-22T10:07:37;96508.16;;;30.12;29.01
54816;BME280;40715;55.752;37.884;2023-12-22T10:10:07;96501.06;;;30.11;29.10
54816;BME280;40715;55.752;37.884;2023-12-22T10:12:34;96507.09;;;30.13;28.92
54816;BME280;40715;55.752;37.884;2023-12-22T10:15:03;96502.25;;;30.15;28.87
54816;BME280;40715;55.752;37.884;2023-12-22T10:17:32;96504.97;;;30.15;28.60
54816;BME280;40715;55.752;37.884;2023-12-22T10:19:59;96504.72;;;30.17;28.31
54816;BME280;40715;55.752;37.884;2023-12-22T10:22:27;96493.88;;;30.17;28.55
54816;BME280;40715;55.752;37.884;2023-12-22T10:24:54;96497.16;;;30.07;28.33
54816;BME280;40715;55.752;37.884;2023-12-22T10:27:21;96500.81;;;30.01;28.90
54816;BME280;40715;55.752;37.884;2023-12-22T10:29:55;96489.50;;;30.04;28.88
54816;BME280;40715;55.752;37.884;2023-12-22T10:32:23;96482.88;;;30.00;29.05
54816;BME280;40715;55.752;37.884;2023-12-22T10:34:53;96478.75;;;29.97;29.18
54816;BME280;40715;55.752;37.884;2023-12-22T10:37:21;96480.06;;;29.94;28.60
54816;BME280;40715;55.752;37.884;2023-12-22T10:39:54;96485.72;;;29.93;28.68
54816;BME280;40715;55.752;37.884;2023-12-22T10:42:21;96486.31;;;29.83;28.63
54816;BME280;40715;55.752;37.884;2023-12-22T10:44:48;96486.75;;;29.80;28.83
54816;BME280;40715;55.752;37.884;2023-12-22T10:47:18;96482.00;;;29.75;28.63
54816;BME280;40715;55.752;37.884;2023-12-22T10:49:48;96480.13;;;29.76;28.52
54816;BME280;40715;55.752;37.884;2023-12-22T10:52:18;96478.22;;;29.76;28.68
54816;BME280;40715;55.752;37.884;2023-12-22T10:54:48;96477.19;;;29.77;28.47
54816;BME280;40715;55.752;37.884;2023-12-22T10:57:19;96466.91;;;29.68;28.77
54816;BME280;40715;55.752;37.884;2023-12-22T10:59:48;96476.56;;;29.64;28.79
54816;BME280;40715;55.752;37.884;2023-12-22T11:02:22;96474.66;;;29.64;28.73
54816;BME280;40715;55.752;37.884;2023-12-22T11:04:56;96470.91;;;29.65;28.75
54816;BME280;40715;55.752;37.884;2023-12-22T11:07:24;96460.19;;;29.70;28.54
54816;BME280;40715;55.752;37.884;2023-12-22T11:09:53;96469.72;;;29.73;28.50
54816;BME280;40715;55.752;37.884;2023-12-22T11:12:23;96453.69;;;29.71;28.28
54816;BME280;40715;55.752;37.884;2023-12-22T11:14:51;96461.25;;;29.69;28.31
54816;BME280;40715;55.752;37.884;2023-12-22T11:17:21;96462.66;;;29.72;28.31
54816;BME280;40715;55.752;37.884;2023-12-22T11:19:53;96456.91;;;29.80;28.13
54816;BME280;40715;55.752;37.884;2023-12-22T11:22:21;96465.78;;;29.87;28.07
54816;BME280;40715;55.752;37.884;2023-12-22T11:24:49;96464.47;;;29.90;27.89
54816;BME280;40715;55.752;37.884;2023-12-22T11:27:19;96469.22;;;29.94;28.14
54816;BME280;40715;55.752;37.884;2023-12-22T11:29:48;96481.25;;;29.99;27.90
54816;BME280;40715;55.752;37.884;2023-12-22T11:32:19;96470.72;;;30.02;28.23
54816;BME280;40715;55.752;37.884;2023-12-22T11:34:46;96473.81;;;30.06;28.23
54816;BME280;40715;55.752;37.884;2023-12-22T11:37:15;96472.03;;;30.00;28.31
54816;BME280;40715;55.752;37.884;2023-12-22T11:39:43;96461.88;;;29.95;28.15
54816;BME280;40715;55.752;37.884;2023-12-22T11:42:16;96468.84;;;29.91;28.46
54816;BME280;40715;55.752;37.884;2023-12-22T11:44:44;96460.69;;;29.91;28.70
54816;BME280;40715;55.752;37.884;2023-12-22T11:47:11;96462.47;;;29.85;29.06
54816;BME280;40715;55.752;37.884;2023-12-22T11:49:40;96469.63;;;29.68;29.04
54816;BME280;40715;55.752;37.884;2023-12-22T11:52:15;96467.44;;;29.46;29.52
54816;BME280;40715;55.752;37.884;2023-12-22T11:54:50;96461.00;;;29.29;30.05
54816;BME280;40715;55.752;37.884;2023-12-22T11:59:55;96460.44;;;29.08;30.01
54816;BME280;40715;55.752;37.884;2023-12-22T12:02:22;96458.59;;;28.90;30.40
54816;BME280;40715;55.752;37.884;2023-12-22T12:04:53;96461.06;;;28.91;30.45
54816;BME280;40715;55.752;37.884;2023-12-22T12:07:42;96460.66;;;28.95;30.50
54816;BME280;40715;55.752;37.884;2023-12-22T12:13:10;96477.25;;;28.98;30.15
54816;BME280;40715;55.752;37.884;2023-12-22T12:15:38;96466.91;;;29.07;29.84
54816;BME280;40715;55.752;37.884;2023-12-22T12:18:05;96465.91;;;29.20;29.86
54816;BME280;40715;55.752;37.884;2023-12-22T12:20:33;96465.16;;;29.31;29.55
54816;BME280;40715;55.752;37.884;2023-12-22T12:23:01;96467.78;;;29.38;29.28
54816;BME280;40715;55.752;37.884;2023-12-22T12:25:29;96459.41;;;29.39;29.46
54816;BME280;40715;55.752;37.884;2023-12-22T12:28:04;96470.50;;;29.38;29.38
54816;BME280;40715;55.752;37.884;2023-12-22T12:30:33;96445.69;;;29.34;29.17
54816;BME280;40715;55.752;37.884;2023-12-22T12:33:09;96462.94;;;29.40;29.00
54816;BME280;40715;55.752;37.884;2023-12-22T12:35:38;96448.09;;;29.42;29.01
54816;BME280;40715;55.752;37.884;2023-12-22T12:38:07;96445.38;;;29.42;28.73
54816;BME280;40715;55.752;37.884;2023-12-22T12:40:37;96429.56;;;29.39;28.79
54816;BME280;40715;55.752;37.884;2023-12-22T12:43:06;96429.72;;;29.44;28.75
54816;BME280;40715;55.752;37.884;2023-12-22T12:45:33;96434.53;;;29.42;28.21
54816;BME280;40715;55.752;37.884;2023-12-22T12:48:01;96433.31;;;29.26;28.33
54816;BME280;40715;55.752;37.884;2023-12-22T12:50:30;96438.97;;;29.25;28.46
54816;BME280;40715;55.752;37.884;2023-12-22T12:52:59;96419.59;;;29.21;28.27
54816;BME280;40715;55.752;37.884;2023-12-22T12:55:27;96423.63;;;29.19;28.46
54816;BME280;40715;55.752;37.884;2023-12-22T12:57:55;96420.44;;;29.22;28.15
54816;BME280;40715;55.752;37.884;2023-12-22T13:00:33;96419.75;;;29.26;28.02